Time;durP1;ratioP1;P1;durP2;ratioP2;P2;SDS_P1;SDS_P2;PMS_P1;PMS_P2;Temp;Humidity;BMP_temperature;BMP_pressure;BME280_temperature;BME280_humidity;BME280_pressure;Samples;Min_cycle;Max_cycle;Signal;HPM_P1;HPM_P2
2021/03/30 00:01:37;;;;;;;5.70;3.90;;;;;;;13.23;37.20;102209.22;5038960;28;20210;-80
2021/03/30 00:04:03;;;;;;;6.53;3.63;;;;;;;13.19;37.12;102214.69;5038548;28;20202;-80
2021/03/30 00:06:29;;;;;;;4.60;3.37;;;;;;;13.15;36.96;102212.25;5038555;28;20752;-79
2021/03/30 00:08:55;;;;;;;5.87;3.93;;;;;;;13.10;37.18;102212.44;5039191;28;20212;-80
2021/03/30 00:11:21;;;;;;;4.97;3.87;;;;;;;13.05;37.35;102211.81;5039200;28;20223;-79
2021/03/30 00:13:48;;;;;;;6.13;4.00;;;;;;;12.99;37.78;102212.09;5038746;28;20224;-79
2021/03/30 00:16:15;;;;;;;6.77;3.70;;;;;;;12.94;37.63;102219.47;5038731;28;20574;-79
2021/03/30 00:18:41;;;;;;;5.97;4.10;;;;;;;12.90;37.57;102217.03;5039463;28;20648;-79
2021/03/30 00:21:07;;;;;;;5.73;3.97;;;;;;;12.85;37.61;102211.91;5039182;28;20562;-79
2021/03/30 00:23:33;;;;;;;5.77;4.47;;;;;;;12.79;38.17;102210.38;5036433;28;20233;-80
2021/03/30 00:25:59;;;;;;;5.50;3.90;;;;;;;12.74;37.78;102217.75;5039162;28;20226;-79
2021/03/30 00:28:25;;;;;;;5.17;3.93;;;;;;;12.71;38.08;102219.72;5034914;28;20237;-79
2021/03/30 00:30:52;;;;;;;6.23;3.67;;;;;;;12.66;38.29;102213.72;5038673;28;20644;-80
2021/03/30 00:33:19;;;;;;;5.37;3.90;;;;;;;12.62;37.94;102214.78;5038726;28;20720;-80
2021/03/30 00:35:45;;;;;;;6.13;4.33;;;;;;;12.58;38.23;102221.22;5039021;28;20208;-80
2021/03/30 00:38:11;;;;;;;6.00;3.90;;;;;;;12.55;38.18;102216.00;5038834;28;20206;-80
2021/03/30 00:40:37;;;;;;;7.00;4.13;;;;;;;12.52;38.45;102220.59;5038564;28;20208;-78
2021/03/30 00:43:04;;;;;;;4.37;3.80;;;;;;;12.49;38.37;102211.84;5037778;28;20230;-78
2021/03/30 00:45:31;;;;;;;4.93;4.20;;;;;;;12.45;38.27;102219.13;5028329;28;20282;-79
2021/03/30 00:47:57;;;;;;;5.40;4.00;;;;;;;12.42;38.39;102216.59;5034653;28;20566;-77
2021/03/30 00:50:28;;;;;;;5.73;3.93;;;;;;;12.38;38.50;102215.00;5037486;28;20202;-78
2021/03/30 00:52:55;;;;;;;7.20;4.50;;;;;;;12.34;38.90;102212.56;5037606;28;20726;-79
2021/03/30 00:55:21;;;;;;;8.00;4.53;;;;;;;12.30;38.77;102213.63;5037742;28;20662;-79
2021/03/30 00:57:48;;;;;;;4.93;4.13;;;;;;;12.28;38.91;102218.16;5037920;28;20207;-79
2021/03/30 01:00:16;;;;;;;6.30;4.27;;;;;;;12.26;39.15;102212.03;5037525;28;20264;-78
2021/03/30 01:02:42;;;;;;;4.80;4.23;;;;;;;12.25;39.11;102208.47;5036961;28;20230;-78
2021/03/30 01:05:10;;;;;;;6.20;4.13;;;;;;;12.25;39.23;102207.63;5037183;28;20223;-78
2021/03/30 01:07:43;;;;;;;6.27;4.10;;;;;;;12.27;39.11;102206.59;5037361;28;20206;-79
2021/03/30 01:10:19;;;;;;;7.10;4.87;;;;;;;12.29;39.13;102211.88;5037415;28;20253;-79
2021/03/30 01:12:56;;;;;;;6.53;4.57;;;;;;;12.31;38.72;102215.34;5036336;28;20226;-79
2021/03/30 01:15:33;;;;;;;6.37;4.40;;;;;;;12.33;38.72;102216.16;5036142;28;20186;-79
2021/03/30 01:18:08;;;;;;;7.27;4.50;;;;;;;12.33;38.85;102211.69;5036269;28;20191;-80
2021/03/30 01:21:19;;;;;;;8.00;4.40;;;;;;;12.35;38.84;102217.81;5035653;28;20201;-79
2021/03/30 01:24:11;;;;;;;6.43;4.27;;;;;;;12.37;38.56;102221.25;5035773;28;20215;-80
2021/03/30 01:26:44;;;;;;;5.23;4.53;;;;;;;12.39;38.67;102216.72;5035456;28;20211;-79
2021/03/30 01:29:44;;;;;;;6.17;4.67;;;;;;;12.42;38.75;102213.91;5036871;28;20252;-79
2021/03/30 01:32:24;;;;;;;7.20;5.00;;;;;;;12.45;38.63;102210.25;5036056;28;20718;-80
2021/03/30 01:34:53;;;;;;;7.63;4.57;;;;;;;12.46;38.51;102212.84;5035819;28;20197;-81
2021/03/30 01:37:21;;;;;;;7.07;4.73;;;;;;;12.49;38.59;102210.03;5035797;28;20209;-81
2021/03/30 01:39:52;;;;;;;5.83;4.47;;;;;;;12.50;38.55;102211.78;5035827;28;20206;-78
2021/03/30 01:42:23;;;;;;;9.47;5.10;;;;;;;12.51;38.69;102209.97;5036193;28;20350;-80
2021/03/30 01:44:51;;;;;;;7.50;4.93;;;;;;;12.50;38.68;102209.09;5036622;28;20712;-78
2021/03/30 01:47:19;;;;;;;8.10;4.93;;;;;;;12.47;38.47;102214.59;5036210;28;20222;-80
2021/03/30 01:49:46;;;;;;;5.57;4.63;;;;;;;12.45;38.65;102212.91;5038391;28;20204;-80
2021/03/30 01:52:16;;;;;;;5.40;4.87;;;;;;;12.43;38.98;102212.97;5038582;28;20223;-79
2021/03/30 01:54:43;;;;;;;5.67;4.90;;;;;;;12.40;38.62;102205.09;5056858;28;20206;-79
2021/03/30 01:57:12;;;;;;;8.13;4.97;;;;;;;12.38;38.94;102198.94;5055916;28;20226;-79
2021/03/30 01:59:41;;;;;;;8.50;5.07;;;;;;;12.36;38.94;102200.81;5036821;28;20201;-80
2021/03/30 02:02:08;;;;;;;7.27;4.90;;;;;;;12.35;38.82;102198.25;5036219;28;20222;-79
2021/03/30 02:04:35;;;;;;;9.53;5.00;;;;;;;12.33;39.06;102201.00;5036447;28;20202;-77
2021/03/30 02:07:04;;;;;;;7.27;5.30;;;;;;;12.31;39.36;102202.88;5035939;28;20297;-79
2021/03/30 02:09:33;;;;;;;6.33;4.80;;;;;;;12.30;39.00;102195.78;5035912;28;20205;-78
2021/03/30 02:12:02;;;;;;;8.40;4.87;;;;;;;12.29;39.04;102194.06;5036033;28;20233;-79
2021/03/30 02:14:28;;;;;;;6.47;4.77;;;;;;;12.30;38.79;102197.59;5036724;28;20722;-78
2021/03/30 02:17:01;;;;;;;9.60;4.90;;;;;;;12.29;38.78;102199.41;5035894;28;20210;-77
2021/03/30 02:19:38;;;;;;;10.90;5.47;;;;;;;12.28;38.93;102197.66;5037344;28;20190;-78
2021/03/30 02:22:08;;;;;;;5.90;5.23;;;;;;;12.27;39.01;102195.91;5045602;28;20217;-78
2021/03/30 02:24:36;;;;;;;5.20;4.43;;;;;;;12.26;38.94;102196.84;5035774;28;20205;-78
2021/03/30 02:27:06;;;;;;;7.00;5.40;;;;;;;12.28;38.91;102200.34;5035069;28;20208;-79
2021/03/30 02:29:34;;;;;;;9.10;5.53;;;;;;;12.27;38.96;102197.72;5035132;28;20251;-79
2021/03/30 02:32:03;;;;;;;9.13;5.07;;;;;;;12.28;38.85;102203.00;5035776;28;20222;-79
2021/03/30 02:34:34;;;;;;;8.17;5.13;;;;;;;12.28;39.10;102196.78;5040984;28;20304;-79
2021/03/30 02:37:01;;;;;;;7.93;4.77;;;;;;;12.27;39.17;102198.59;5055317;28;20188;-79
2021/03/30 02:39:28;;;;;;;11.77;5.37;;;;;;;12.29;38.80;102194.06;5018854;28;20874;-80
2021/03/30 02:41:56;;;;;;;9.33;5.57;;;;;;;12.29;38.96;102201.19;5025095;28;20655;-80
2021/03/30 02:44:23;;;;;;;6.93;5.43;;;;;;;12.30;38.96;102198.47;5051889;28;20213;-79
2021/03/30 02:46:50;;;;;;;7.93;5.07;;;;;;;12.30;38.68;102195.78;5056185;28;20317;-79
2021/03/30 02:49:18;;;;;;;6.07;5.03;;;;;;;12.30;38.66;102198.47;5044530;28;20206;-80
2021/03/30 02:51:47;;;;;;;8.50;5.43;;;;;;;12.30;38.66;102195.78;5052876;28;20293;-81
2021/03/30 02:54:15;;;;;;;9.80;5.80;;;;;;;12.29;38.65;102194.06;5042026;28;20232;-81
2021/03/30 02:56:42;;;;;;;8.80;5.60;;;;;;;12.29;38.85;102196.72;5028536;28;20209;-81
2021/03/30 02:59:08;;;;;;;8.57;5.90;;;;;;;12.28;38.96;102203.00;5027778;28;20206;-80
2021/03/30 03:01:36;;;;;;;9.07;5.40;;;;;;;12.28;38.87;102197.66;5040716;28;20212;-80
2021/03/30 03:04:02;;;;;;;8.93;6.00;;;;;;;12.28;39.08;102197.66;5040459;28;20290;-81
2021/03/30 03:06:29;;;;;;;7.93;6.50;;;;;;;12.27;38.90;102195.91;5040127;28;20711;-80
2021/03/30 03:08:57;;;;;;;8.03;6.00;;;;;;;12.29;39.08;102201.19;5041430;28;20206;-79
2021/03/30 03:11:24;;;;;;;9.50;6.37;;;;;;;12.28;39.21;102202.13;5038577;28;20206;-78
2021/03/30 03:13:51;;;;;;;12.63;6.57;;;;;;;12.28;39.23;102199.47;5038343;28;20236;-77
2021/03/30 03:16:20;;;;;;;8.77;5.70;;;;;;;12.27;39.28;102205.75;5037575;28;20202;-78
2021/03/30 03:18:47;;;;;;;7.00;6.00;;;;;;;12.24;39.32;102204.06;5037641;28;20245;-77
2021/03/30 03:21:14;;;;;;;10.40;6.40;;;;;;;12.22;39.59;102200.59;5037793;28;20208;-79
2021/03/30 03:23:41;;;;;;;9.23;6.23;;;;;;;12.21;39.50;102200.66;5037019;28;20240;-80
2021/03/30 03:26:11;;;;;;;10.23;6.37;;;;;;;12.20;39.85;102198.94;5037534;28;20228;-80
2021/03/30 03:28:39;;;;;;;10.03;6.37;;;;;;;12.18;39.80;102199.03;5037286;28;20206;-80
2021/03/30 03:31:05;;;;;;;8.37;6.43;;;;;;;12.16;39.82;102201.78;5036984;28;20218;-80
2021/03/30 03:33:31;;;;;;;7.50;6.03;;;;;;;12.14;39.90;102200.97;5036712;28;20279;-79
2021/03/30 03:36:04;;;;;;;11.03;6.20;;;;;;;12.14;39.97;102200.09;5036963;28;20603;-77
2021/03/30 03:38:31;;;;;;;8.83;6.30;;;;;;;12.13;40.12;102198.38;5038479;28;20673;-78
2021/03/30 03:40:57;;;;;;;10.37;6.83;;;;;;;12.12;40.13;102197.50;5037918;28;20239;-78
2021/03/30 03:43:23;;;;;;;10.23;6.67;;;;;;;12.11;40.16;102202.91;5038641;28;20285;-79
2021/03/30 03:45:50;;;;;;;9.27;6.40;;;;;;;12.10;40.35;102210.03;5037607;28;20226;-76
2021/03/30 03:48:16;;;;;;;9.57;6.63;;;;;;;12.09;40.14;102207.44;5038309;28;20198;-79
2021/03/30 03:50:43;;;;;;;10.50;6.73;;;;;;;12.06;40.32;102203.09;5018403;28;20720;-78
2021/03/30 03:53:12;;;;;;;10.53;6.50;;;;;;;12.04;40.82;102204.09;5018663;28;20226;-78
2021/03/30 03:55:44;;;;;;;11.30;6.93;;;;;;;12.03;40.60;102203.22;5036817;28;20232;-77
2021/03/30 03:58:14;;;;;;;8.07;6.50;;;;;;;12.00;40.58;102200.69;5038387;28;20203;-78
2021/03/30 04:00:41;;;;;;;7.93;6.80;;;;;;;11.98;40.65;102209.75;5038514;28;20220;-80
2021/03/30 04:03:14;;;;;;;11.20;6.63;;;;;;;11.96;40.57;102207.13;5039714;28;20245;-79
2021/03/30 04:05:43;;;;;;;11.30;7.43;;;;;;;11.94;40.74;102214.34;5039350;28;20298;-79
2021/03/30 04:08:13;;;;;;;11.47;7.37;;;;;;;11.93;40.78;102207.25;5038761;28;20205;-78
2021/03/30 04:10:42;;;;;;;12.07;6.93;;;;;;;11.91;40.96;102219.81;5039400;28;20204;-79
2021/03/30 04:13:10;;;;;;;9.00;7.10;;;;;;;11.89;41.03;102215.47;5038959;28;20706;-78
2021/03/30 04:15:37;;;;;;;9.80;7.03;;;;;;;11.87;40.90;102223.53;5039277;28;20558;-79
2021/03/30 04:18:05;;;;;;;9.67;6.57;;;;;;;11.87;41.36;102225.34;5037649;28;20850;-79
2021/03/30 04:20:40;;;;;;;10.33;7.00;;;;;;;11.85;41.27;102232.53;5038150;28;20266;-79
2021/03/30 04:23:06;;;;;;;10.07;7.13;;;;;;;11.83;41.44;102224.59;5037076;28;20274;-79
2021/03/30 04:25:32;;;;;;;9.43;6.97;;;;;;;11.82;41.24;102225.56;5039641;28;20309;-80
2021/03/30 04:27:58;;;;;;;12.07;8.07;;;;;;;11.80;41.45;102228.31;5039764;28;20600;-81
2021/03/30 04:30:25;;;;;;;10.47;7.37;;;;;;;11.79;41.31;102228.38;5038705;28;20734;-80
2021/03/30 04:32:51;;;;;;;12.10;7.53;;;;;;;11.77;41.43;102225.75;5037754;28;20237;-79
2021/03/30 04:35:18;;;;;;;10.10;7.63;;;;;;;11.74;41.60;102220.50;5038524;28;20198;-78
2021/03/30 04:37:44;;;;;;;12.27;7.90;;;;;;;11.73;41.69;102225.91;5038309;28;20649;-79
2021/03/30 04:40:13;;;;;;;11.40;8.23;;;;;;;11.72;41.78;102226.84;5038618;28;20210;-80
2021/03/30 04:42:53;;;;;;;14.77;8.50;;;;;;;11.70;41.91;102221.56;5038192;28;20218;-80
2021/03/30 04:45:19;;;;;;;14.00;8.50;;;;;;;11.69;41.95;102225.16;5037180;28;20230;-80
2021/03/30 04:47:45;;;;;;;10.47;7.67;;;;;;;11.68;42.25;102239.44;5037558;28;20301;-80
2021/03/30 04:50:15;;;;;;;9.40;7.20;;;;;;;11.61;42.44;102239.78;5035835;28;20207;-80
2021/03/30 04:52:42;;;;;;;13.00;7.60;;;;;;;11.52;42.73;102248.16;5026850;28;20231;-78
2021/03/30 04:55:10;;;;;;;8.60;6.87;;;;;;;11.41;43.13;102252.16;5037732;28;20224;-78
2021/03/30 04:57:36;;;;;;;16.47;12.07;;;;;;;11.24;43.41;102244.00;5036510;28;20297;-78
2021/03/30 05:00:06;;;;;;;7.80;6.47;;;;;;;11.02;44.25;102251.97;5036519;28;20217;-79
2021/03/30 05:02:32;;;;;;;10.03;6.13;;;;;;;10.83;44.70;102253.63;5036326;28;20227;-79
2021/03/30 05:04:58;;;;;;;9.93;6.50;;;;;;;10.62;45.09;102254.44;5036546;28;20300;-78
2021/03/30 05:07:24;;;;;;;10.90;6.80;;;;;;;10.44;45.97;102261.34;5036779;28;20296;-79
2021/03/30 05:09:51;;;;;;;11.80;6.37;;;;;;;10.27;46.82;102264.63;5035759;28;20244;-78
2021/03/30 05:12:17;;;;;;;13.27;6.63;;;;;;;10.15;47.19;102262.38;5036043;28;20230;-77
2021/03/30 05:14:43;;;;;;;10.30;6.67;;;;;;;10.04;47.74;102267.19;5036429;28;20206;-80
2021/03/30 05:17:10;;;;;;;11.07;7.70;;;;;;;9.97;48.11;102271.88;5037479;28;20212;-79
2021/03/30 05:19:36;;;;;;;11.53;6.33;;;;;;;9.92;48.42;102270.28;5036762;28;20214;-80
2021/03/30 05:22:02;;;;;;;11.03;6.67;;;;;;;9.86;49.05;102276.69;5037069;28;20226;-80
2021/03/30 05:24:31;;;;;;;11.43;5.73;;;;;;;9.80;48.62;102281.38;5036742;28;20648;-79
2021/03/30 05:26:58;;;;;;;8.90;6.97;;;;;;;9.71;49.30;102277.22;5035919;28;20226;-80
2021/03/30 05:29:24;;;;;;;10.33;6.10;;;;;;;9.63;49.86;102285.47;5033192;28;20567;-80
2021/03/30 05:31:50;;;;;;;10.00;5.93;;;;;;;9.56;49.76;102283.94;5036050;28;20305;-80
2021/03/30 05:34:16;;;;;;;8.60;6.13;;;;;;;9.48;49.99;102286.00;5033555;28;20205;-79
2021/03/30 05:36:44;;;;;;;9.90;6.13;;;;;;;9.43;50.11;102287.91;5037613;28;20301;-79
2021/03/30 05:39:10;;;;;;;9.40;6.70;;;;;;;9.40;50.92;102290.66;5038121;28;20210;-80
2021/03/30 05:41:38;;;;;;;11.60;7.00;;;;;;;9.39;50.55;102291.59;5029180;28;20210;-80
2021/03/30 05:44:07;;;;;;;11.83;6.50;;;;;;;9.41;51.81;102297.72;5038261;28;20233;-80
2021/03/30 05:46:33;;;;;;;14.40;6.47;;;;;;;9.44;52.04;102294.97;5037006;28;20605;-80
2021/03/30 05:48:59;;;;;;;13.23;6.77;;;;;;;9.46;51.42;102298.47;5036968;28;20213;-80
2021/03/30 05:51:27;;;;;;;9.80;6.53;;;;;;;9.53;51.73;102301.78;5037414;28;20290;-80
2021/03/30 05:53:57;;;;;;;12.80;7.13;;;;;;;9.58;51.67;102300.72;5037170;28;20352;-80
2021/03/30 05:56:26;;;;;;;11.27;7.27;;;;;;;9.63;52.09;102304.09;5037691;28;20698;-82
2021/03/30 05:58:56;;;;;;;13.77;7.50;;;;;;;9.70;52.35;102305.63;5038273;28;20301;-80
2021/03/30 06:01:24;;;;;;;8.90;7.03;;;;;;;9.75;51.63;102301.00;5037793;28;20284;-80
2021/03/30 06:03:53;;;;;;;7.83;5.97;;;;;;;9.83;52.12;102307.88;5036563;28;20289;-81
2021/03/30 06:06:19;;;;;;;9.57;6.50;;;;;;;9.89;51.96;102310.31;5031490;28;20245;-81
2021/03/30 06:08:45;;;;;;;11.30;7.07;;;;;;;9.95;51.61;102310.97;5015954;28;20207;-80
2021/03/30 06:11:12;;;;;;;10.13;5.97;;;;;;;10.01;51.65;102318.78;5022781;28;20202;-80
2021/03/30 06:13:49;;;;;;;13.63;6.23;;;;;;;10.10;51.39;102322.88;5035885;28;20226;-80
2021/03/30 06:16:29;;;;;;;9.33;6.77;;;;;;;10.16;51.85;102332.47;5031102;28;20258;-81
2021/03/30 06:19:12;;;;;;;10.07;6.63;;;;;;;10.19;51.38;102330.59;5035996;28;20540;-80
2021/03/30 06:21:40;;;;;;;7.53;5.97;;;;;;;10.20;52.01;102335.00;5035221;28;20198;-77
2021/03/30 06:24:29;;;;;;;8.63;6.13;;;;;;;10.25;52.22;102327.72;5034510;28;20305;-79
2021/03/30 06:27:16;;;;;;;9.87;6.60;;;;;;;10.34;52.36;102329.19;5036158;28;20213;-80
2021/03/30 06:29:43;;;;;;;12.20;6.90;;;;;;;10.42;52.09;102330.63;5036360;28;20191;-80
2021/03/30 06:32:12;;;;;;;11.67;7.10;;;;;;;10.51;53.19;102336.56;5036047;28;20279;-80
2021/03/30 06:34:40;;;;;;;13.60;7.80;;;;;;;10.58;53.22;102330.94;5036209;28;20209;-81
2021/03/30 06:37:37;;;;;;;15.37;7.97;;;;;;;10.67;53.98;102327.09;5035651;28;20199;-79
2021/03/30 06:40:10;;;;;;;14.87;7.77;;;;;;;10.74;54.01;102333.94;5015757;28;20528;-79
2021/03/30 06:42:41;;;;;;;13.60;8.50;;;;;;;10.81;54.59;102316.78;5015315;28;20218;-78
2021/03/30 06:45:17;;;;;;;15.23;8.07;;;;;;;10.89;54.46;102327.16;5019004;28;20242;-80
2021/03/30 06:47:45;;;;;;;14.70;8.53;;;;;;;10.98;55.06;102330.34;5034929;28;20200;-79
2021/03/30 06:50:25;;;;;;;13.17;8.50;;;;;;;11.13;55.35;102336.88;5037187;28;20696;-81
2021/03/30 06:52:52;;;;;;;14.50;9.40;;;;;;;11.28;55.66;102330.97;5038957;28;20234;-80
2021/03/30 06:55:29;;;;;;;17.87;9.30;;;;;;;11.47;54.38;102339.06;5037652;28;20206;-81
2021/03/30 06:58:05;;;;;;;17.30;9.90;;;;;;;11.66;52.91;102341.84;5036430;28;20289;-81
2021/03/30 07:00:33;;;;;;;16.10;10.00;;;;;;;11.86;51.48;102328.59;5036641;28;20202;-79
2021/03/30 07:03:02;;;;;;;16.40;10.30;;;;;;;12.10;50.23;102340.03;5036060;28;20567;-81
2021/03/30 07:05:37;;;;;;;15.40;9.77;;;;;;;12.34;48.81;102344.34;5035067;28;20234;-81
2021/03/30 07:08:10;;;;;;;16.43;10.43;;;;;;;12.58;47.90;102338.81;5036080;28;20205;-80
2021/03/30 07:10:47;;;;;;;16.27;10.80;;;;;;;12.84;46.95;102336.72;5035547;28;20588;-79
2021/03/30 07:13:18;;;;;;;16.20;9.83;;;;;;;13.06;46.05;102338.41;5034693;28;20326;-82
2021/03/30 07:15:45;;;;;;;15.87;10.37;;;;;;;13.26;45.56;102341.00;5034787;28;20273;-79
2021/03/30 07:18:23;;;;;;;19.27;10.80;;;;;;;13.46;45.09;102343.59;5034573;28;20674;-78
2021/03/30 07:20:54;;;;;;;16.17;10.60;;;;;;;13.65;44.39;102340.88;5034825;28;20704;-78
2021/03/30 07:23:22;;;;;;;18.17;11.03;;;;;;;13.85;44.27;102347.94;5035911;28;20317;-79
2021/03/30 07:25:54;;;;;;;17.20;10.80;;;;;;;14.03;43.62;102341.63;5036867;28;20226;-80
2021/03/30 07:28:24;;;;;;;18.63;10.43;;;;;;;14.18;43.24;102346.22;5036855;28;20201;-79
2021/03/30 07:30:55;;;;;;;17.63;10.73;;;;;;;14.37;43.25;102339.91;5035154;28;20302;-78
2021/03/30 07:33:27;;;;;;;15.37;10.07;;;;;;;14.53;42.59;102336.34;5032963;28;20314;-80
2021/03/30 07:35:56;;;;;;;15.90;10.40;;;;;;;14.71;42.18;102342.53;5038512;28;20206;-79
2021/03/30 07:38:27;;;;;;;17.53;11.80;;;;;;;14.87;42.02;102339.91;5036736;28;20202;-78
2021/03/30 07:40:53;;;;;;;16.80;11.10;;;;;;;15.00;41.46;102338.28;5038557;28;20199;-81
2021/03/30 07:43:23;;;;;;;17.17;10.73;;;;;;;15.13;40.75;102341.16;5026393;22;20235;-65
2021/03/30 07:45:50;;;;;;;18.53;11.20;;;;;;;15.23;40.72;102337.88;4981841;28;20231;-64
2021/03/30 07:48:19;;;;;;;17.33;11.17;;;;;;;15.35;40.33;102340.84;4978717;28;20212;-65
2021/03/30 07:50:54;;;;;;;19.13;11.17;;;;;;;15.46;40.07;102336.56;4994141;28;20227;-64
2021/03/30 07:53:44;;;;;;;18.63;11.87;;;;;;;15.64;40.04;102337.38;4993933;28;20627;-64
2021/03/30 07:56:13;;;;;;;20.07;11.77;;;;;;;15.78;39.83;102337.44;4977153;28;20282;-65
2021/03/30 07:58:43;;;;;;;19.80;11.33;;;;;;;15.94;39.45;102335.56;4981277;28;20208;-65
2021/03/30 08:01:11;;;;;;;16.77;11.17;;;;;;;16.10;39.38;102338.25;4976961;28;20687;-66
2021/03/30 08:03:38;;;;;;;18.77;11.70;;;;;;;16.24;38.97;102350.84;4977587;28;20204;-64
2021/03/30 08:06:22;;;;;;;18.73;11.97;;;;;;;16.40;38.53;102348.09;4977417;28;20220;-65
2021/03/30 08:08:53;;;;;;;20.17;11.90;;;;;;;16.51;37.88;102346.47;4978242;28;20307;-65
2021/03/30 08:11:45;;;;;;;23.37;12.20;;;;;;;16.63;38.04;102351.13;4976798;28;20792;-62
2021/03/30 08:14:33;;;;;;;18.87;12.07;;;;;;;16.77;37.59;102349.41;4978228;28;20238;-62
2021/03/30 08:17:01;;;;;;;19.20;11.80;;;;;;;16.89;37.11;102354.00;4977186;28;20206;-61
2021/03/30 08:19:28;;;;;;;21.13;12.07;;;;;;;17.00;37.33;102346.16;4977428;28;20209;-63
2021/03/30 08:21:56;;;;;;;19.80;12.53;;;;;;;17.13;37.19;102351.59;4974749;28;20228;-62
2021/03/30 08:24:24;;;;;;;19.47;12.53;;;;;;;17.24;36.89;102343.69;4974485;28;20218;-62
2021/03/30 08:26:50;;;;;;;17.33;11.77;;;;;;;17.38;36.49;102359.81;4975439;28;20292;-63
2021/03/30 08:29:19;;;;;;;17.57;12.00;;;;;;;17.50;36.29;102360.88;4974383;28;20265;-63
2021/03/30 08:31:47;;;;;;;19.30;12.27;;;;;;;17.62;35.90;102362.75;4977035;28;20223;-63
2021/03/30 08:34:15;;;;;;;18.30;12.13;;;;;;;17.70;35.59;102357.75;4978791;28;20211;-63
2021/03/30 08:36:48;;;;;;;19.67;12.70;;;;;;;17.81;35.46;102357.91;4977460;28;20568;-63
2021/03/30 08:39:33;;;;;;;19.40;11.90;;;;;;;17.94;35.30;102357.94;4975847;28;20207;-63
2021/03/30 08:42:08;;;;;;;22.80;12.60;;;;;;;18.09;35.07;102358.75;4976140;28;20591;-63
2021/03/30 08:44:43;;;;;;;21.57;12.53;;;;;;;18.24;34.66;102358.56;4975805;28;20207;-63
2021/03/30 08:47:24;;;;;;;19.73;12.50;;;;;;;18.35;34.01;102352.44;4975736;28;20237;-64
2021/03/30 08:49:50;;;;;;;19.67;11.40;;;;;;;18.47;33.66;102356.09;4977750;28;20691;-63
2021/03/30 08:52:18;;;;;;;20.80;12.90;;;;;;;18.51;33.29;102363.00;4976702;28;20211;-63
2021/03/30 08:54:50;;;;;;;20.67;12.13;;;;;;;18.55;33.43;102361.84;4975953;28;20207;-63
2021/03/30 08:57:25;;;;;;;19.63;12.43;;;;;;;18.59;33.36;102375.03;4974105;28;20208;-64
2021/03/30 08:59:51;;;;;;;20.37;11.60;;;;;;;18.63;33.53;102376.53;4979004;28;20701;-63
2021/03/30 09:02:23;;;;;;;17.23;11.57;;;;;;;18.72;33.46;102378.59;4982864;28;20232;-66
2021/03/30 09:04:50;;;;;;;21.63;12.40;;;;;;;18.80;33.30;102372.69;4976151;28;20204;-63
2021/03/30 09:07:16;;;;;;;16.20;11.07;;;;;;;18.86;33.05;102371.34;4976059;28;20235;-63
2021/03/30 09:09:42;;;;;;;18.87;11.97;;;;;;;18.91;32.99;102366.50;4976452;28;20224;-63
2021/03/30 09:12:20;;;;;;;18.40;12.30;;;;;;;18.93;33.16;102370.81;4976125;28;20215;-63
2021/03/30 09:14:47;;;;;;;23.27;12.53;;;;;;;19.05;33.06;102374.47;4974960;28;20204;-63
2021/03/30 09:17:15;;;;;;;18.90;11.83;;;;;;;19.14;33.02;102368.44;4975150;28;20702;-63
2021/03/30 09:19:44;;;;;;;21.53;12.13;;;;;;;19.24;32.75;102368.63;4977286;28;20549;-65
2021/03/30 09:22:15;;;;;;;20.80;11.60;;;;;;;19.31;32.39;102367.19;4976431;28;20213;-63
2021/03/30 09:25:04;;;;;;;17.40;11.57;;;;;;;19.35;32.42;102372.25;4977109;28;20275;-63
2021/03/30 09:27:34;;;;;;;20.37;12.30;;;;;;;19.45;32.82;102369.75;4975141;28;20722;-63
2021/03/30 09:30:03;;;;;;;18.17;12.43;;;;;;;19.56;32.96;102371.69;4979469;28;20233;-64
2021/03/30 09:32:32;;;;;;;16.03;11.90;;;;;;;19.68;33.16;102373.50;4975760;28;20224;-63
2021/03/30 09:35:06;;;;;;;17.37;12.23;;;;;;;19.82;32.58;102369.75;4976076;28;20207;-65
2021/03/30 09:37:34;;;;;;;18.97;11.63;;;;;;;19.93;32.30;102364.38;4982522;28;20209;-67
2021/03/30 09:40:05;;;;;;;20.50;12.10;;;;;;;19.98;32.27;102362.22;4980740;28;20228;-65
2021/03/30 09:42:32;;;;;;;15.77;11.87;;;;;;;19.99;31.73;102367.50;4982378;28;20214;-65
2021/03/30 09:44:59;;;;;;;21.13;11.57;;;;;;;19.99;31.57;102362.09;4981984;28;20213;-65
2021/03/30 09:47:25;;;;;;;22.60;11.50;;;;;;;20.00;31.32;102361.13;4977861;28;20285;-65
2021/03/30 09:49:51;;;;;;;19.83;12.13;;;;;;;20.02;31.45;102361.88;4976043;28;20692;-66
2021/03/30 09:52:20;;;;;;;15.13;10.53;;;;;;;20.08;31.40;102358.66;4979754;28;20558;-65
2021/03/30 09:54:46;;;;;;;16.30;10.83;;;;;;;20.15;31.21;102364.47;4979085;28;20214;-65
2021/03/30 09:57:14;;;;;;;18.67;11.17;;;;;;;20.20;30.86;102356.03;4978606;28;20305;-66
2021/03/30 09:59:45;;;;;;;18.13;11.60;;;;;;;20.21;30.79;102355.03;4978421;28;20208;-65
2021/03/30 10:02:11;;;;;;;19.73;12.30;;;;;;;20.24;30.87;102354.81;4978042;28;20224;-65
2021/03/30 10:04:37;;;;;;;16.47;10.30;;;;;;;20.30;30.61;102357.03;4979234;28;20590;-66
2021/03/30 10:07:14;;;;;;;17.73;11.60;;;;;;;20.35;30.42;102358.41;4981443;28;20733;-64
2021/03/30 10:09:55;;;;;;;18.30;11.20;;;;;;;20.38;30.44;102347.38;4980541;28;20696;-64
2021/03/30 10:12:23;;;;;;;19.77;11.73;;;;;;;20.44;30.85;102346.00;4987596;28;20667;-65
2021/03/30 10:14:49;;;;;;;16.80;11.37;;;;;;;20.49;30.56;102346.53;4979635;28;20226;-66
2021/03/30 10:17:16;;;;;;;18.97;10.80;;;;;;;20.54;30.57;102341.63;4984665;28;20232;-65
2021/03/30 10:19:47;;;;;;;17.47;11.90;;;;;;;20.61;30.77;102348.25;4979783;28;20221;-63
2021/03/30 10:22:22;;;;;;;17.90;11.77;;;;;;;20.68;30.47;102335.97;4980670;28;20214;-64
2021/03/30 10:25:06;;;;;;;22.83;12.47;;;;;;;20.71;30.04;102348.41;4980482;28;20216;-65
2021/03/30 10:27:34;;;;;;;19.57;11.47;;;;;;;20.73;29.83;102346.44;4981284;28;20225;-66
2021/03/30 10:30:01;;;;;;;19.97;11.80;;;;;;;20.70;30.03;102339.41;4982237;28;20241;-65
2021/03/30 10:32:32;;;;;;;17.53;11.10;;;;;;;20.72;30.36;102345.59;4981596;28;20206;-66
2021/03/30 10:34:58;;;;;;;22.10;12.40;;;;;;;20.78;29.98;102342.38;4976385;28;20211;-65
2021/03/30 10:37:24;;;;;;;18.47;11.77;;;;;;;20.77;30.05;102332.56;4975231;28;20203;-65
2021/03/30 10:40:01;;;;;;;18.87;11.63;;;;;;;20.79;30.00;102341.38;4981871;28;20206;-65
2021/03/30 10:42:29;;;;;;;20.23;12.70;;;;;;;20.80;29.91;102334.97;4990283;28;20268;-67
2021/03/30 10:44:56;;;;;;;19.57;12.63;;;;;;;20.81;29.98;102330.44;4991158;28;20644;-66
2021/03/30 10:47:28;;;;;;;18.20;12.10;;;;;;;20.90;30.18;102339.69;4990775;28;20631;-66
2021/03/30 10:49:54;;;;;;;17.40;11.80;;;;;;;20.96;29.67;102341.91;4984817;28;20196;-66
2021/03/30 10:52:22;;;;;;;18.77;11.93;;;;;;;20.99;29.68;102337.06;4990394;28;20208;-66
2021/03/30 10:54:51;;;;;;;17.77;11.47;;;;;;;21.02;29.64;102341.38;4988437;28;20269;-65
2021/03/30 10:57:19;;;;;;;19.10;11.17;;;;;;;21.04;29.79;102326.75;4979880;28;20211;-66
2021/03/30 10:59:46;;;;;;;18.83;11.77;;;;;;;21.11;30.19;102330.69;4977689;28;20356;-66
2021/03/30 11:02:13;;;;;;;17.30;10.80;;;;;;;21.18;29.76;102324.75;4979704;28;20212;-66
2021/03/30 11:04:41;;;;;;;20.33;10.67;;;;;;;21.20;29.67;102320.97;4979939;28;20663;-65
2021/03/30 11:07:08;;;;;;;18.67;11.03;;;;;;;21.27;29.83;102322.19;4978401;28;20225;-66
2021/03/30 11:09:35;;;;;;;18.37;10.60;;;;;;;21.29;29.75;102313.94;4984940;28;20872;-66
2021/03/30 11:12:01;;;;;;;15.53;9.97;;;;;;;21.32;29.51;102314.53;4982365;28;20212;-66
2021/03/30 11:14:28;;;;;;;18.73;10.90;;;;;;;21.37;29.65;102316.88;4983666;28;20207;-66
2021/03/30 11:16:54;;;;;;;16.00;9.93;;;;;;;21.42;29.42;102312.78;4981331;28;20204;-65
2021/03/30 11:19:21;;;;;;;18.90;10.57;;;;;;;21.52;29.44;102309.31;4983569;28;20211;-66
2021/03/30 11:21:48;;;;;;;14.33;10.00;;;;;;;21.60;29.32;102304.13;4985585;28;20228;-66
2021/03/30 11:24:17;;;;;;;17.43;10.43;;;;;;;21.63;29.29;102306.56;4983970;28;20264;-67
2021/03/30 11:26:46;;;;;;;15.47;9.83;;;;;;;21.71;29.36;102301.34;4985100;28;20703;-66
2021/03/30 11:29:19;;;;;;;12.77;9.37;;;;;;;21.79;29.17;102305.16;4979935;28;20210;-66